createdAt,value
2016-12-04T00:01:00.017Z,0
2016-12-04T00:01:59.771Z,0
2016-12-04T00:02:59.161Z,0
2016-12-04T00:03:59.109Z,0
2016-12-04T00:05:00.109Z,0
2016-12-04T00:05:59.424Z,0
2016-12-04T00:06:59.540Z,0
2016-12-04T00:07:58.955Z,0
2016-12-04T00:08:58.822Z,0
2016-12-04T00:09:59.568Z,0
2016-12-04T00:10:59.779Z,0
2016-12-04T00:11:59.056Z,0
2016-12-04T00:12:59.055Z,0
2016-12-04T00:13:58.848Z,0
2016-12-04T00:14:58.901Z,0
2016-12-04T00:16:01.127Z,0
2016-12-04T00:16:58.868Z,0
2016-12-04T00:17:58.892Z,0
2016-12-04T00:18:58.915Z,0
2016-12-04T00:19:59.611Z,0
2016-12-04T00:21:00.031Z,0
2016-12-04T00:21:58.882Z,0
2016-12-04T00:22:59.352Z,0
2016-12-04T00:23:58.919Z,0
2016-12-04T00:24:59.033Z,0
2016-12-04T00:25:59.700Z,0
2016-12-04T00:26:59.234Z,0
2016-12-04T00:27:59.578Z,0
2016-12-04T00:28:59.394Z,0
2016-12-04T00:29:58.915Z,0
2016-12-04T00:30:58.885Z,0
2016-12-04T00:31:59.660Z,0
2016-12-04T00:32:59.981Z,0
2016-12-04T00:33:59.324Z,0
2016-12-04T00:34:59.091Z,0
2016-12-04T00:35:59.177Z,0
2016-12-04T00:36:59.426Z,0
2016-12-04T00:37:59.048Z,0
2016-12-04T00:38:58.964Z,0
2016-12-04T00:39:59.373Z,0
2016-12-04T00:40:59.212Z,0
2016-12-04T00:42:00.569Z,0
2016-12-04T00:42:58.955Z,0
2016-12-04T00:43:58.912Z,0
2016-12-04T00:44:59.022Z,0
2016-12-04T00:45:59.168Z,0
2016-12-04T00:46:59.230Z,0
2016-12-04T00:47:58.901Z,0
2016-12-04T00:48:59.032Z,0
2016-12-04T00:49:58.903Z,0
2016-12-04T00:50:58.916Z,0
2016-12-04T00:51:59.618Z,0
2016-12-04T00:52:59.162Z,0
2016-12-04T00:53:59.117Z,0
2016-12-04T00:54:59.029Z,0
2016-12-04T00:55:58.904Z,0
2016-12-04T00:56:58.941Z,0
2016-12-04T00:57:58.962Z,0
2016-12-04T00:58:59.054Z,0
2016-12-04T00:59:59.726Z,0
2016-12-04T01:00:59.415Z,0
2016-12-04T01:01:58.910Z,0
2016-12-04T01:02:58.901Z,0
2016-12-04T01:03:58.943Z,0
2016-12-04T01:04:58.981Z,0
2016-12-04T01:05:58.948Z,0
2016-12-04T01:06:59.979Z,0
2016-12-04T01:07:58.891Z,0
2016-12-04T01:08:59.163Z,0
2016-12-04T01:09:59.074Z,0
2016-12-04T01:10:59.177Z,0
2016-12-04T01:11:59.053Z,0
2016-12-04T01:12:58.863Z,0
2016-12-04T01:13:58.903Z,0
2016-12-04T01:14:58.910Z,0
2016-12-04T01:15:58.939Z,0
2016-12-04T01:16:59.027Z,0
2016-12-04T01:17:58.913Z,0
2016-12-04T01:18:59.058Z,0
2016-12-04T01:19:59.534Z,0
2016-12-04T01:20:59.700Z,0
2016-12-04T01:21:58.959Z,0
2016-12-04T01:22:59.186Z,0
2016-12-04T01:23:59.100Z,0
2016-12-04T01:24:59.071Z,0
2016-12-04T01:25:59.218Z,0
2016-12-04T01:26:59.087Z,0
2016-12-04T01:27:59.858Z,0
2016-12-04T01:28:59.131Z,0
2016-12-04T01:29:59.044Z,0
2016-12-04T01:30:59.989Z,0
2016-12-04T01:31:58.934Z,0
2016-12-04T01:32:59.841Z,0
2016-12-04T01:33:59.045Z,0
2016-12-04T01:34:59.181Z,0
2016-12-04T01:35:59.983Z,0
2016-12-04T01:36:58.965Z,0
2016-12-04T01:37:59.053Z,0
2016-12-04T01:38:58.958Z,0
2016-12-04T01:39:58.914Z,0
2016-12-04T01:40:58.958Z,0
2016-12-04T01:41:59.837Z,0
2016-12-04T01:42:58.952Z,0
2016-12-04T01:43:59.027Z,0
2016-12-04T01:44:59.007Z,0
2016-12-04T01:45:59.079Z,0
2016-12-04T01:46:59.615Z,0
2016-12-04T01:47:58.952Z,0
2016-12-04T01:48:59.881Z,0
2016-12-04T01:49:59.019Z,0
2016-12-04T01:50:59.268Z,0
2016-12-04T01:51:59.036Z,0
2016-12-04T01:52:59.682Z,0
2016-12-04T01:53:59.750Z,0
2016-12-04T01:54:59.334Z,0
2016-12-04T01:55:58.967Z,0
2016-12-04T01:56:59.848Z,0
2016-12-04T01:57:59.429Z,0
2016-12-04T01:58:58.956Z,0
2016-12-04T01:59:59.008Z,0
2016-12-04T02:00:58.946Z,0
2016-12-04T02:01:59.118Z,0
2016-12-04T02:02:58.944Z,0
2016-12-04T02:03:59.626Z,0
2016-12-04T02:04:59.099Z,0
2016-12-04T02:05:58.934Z,0
2016-12-04T02:06:59.091Z,0
2016-12-04T02:07:58.947Z,0
2016-12-04T02:08:59.862Z,0
2016-12-04T02:09:58.951Z,0
2016-12-04T02:10:58.949Z,0
2016-12-04T02:12:00.015Z,0
2016-12-04T02:12:59.306Z,0
2016-12-04T02:13:58.895Z,0
2016-12-04T02:14:59.051Z,0
2016-12-04T02:15:59.274Z,0
2016-12-04T02:16:59.040Z,0
2016-12-04T02:17:58.987Z,0
2016-12-04T02:18:59.007Z,0
2016-12-04T02:19:59.234Z,0
2016-12-04T02:20:58.914Z,0
2016-12-04T02:21:58.970Z,0
2016-12-04T02:22:58.919Z,0
2016-12-04T02:23:59.130Z,0
2016-12-04T02:24:59.117Z,0
2016-12-04T02:25:59.168Z,0
2016-12-04T02:26:59.028Z,0
2016-12-04T02:27:59.486Z,0
2016-12-04T02:28:58.972Z,0
2016-12-04T02:29:59.276Z,0
2016-12-04T02:30:58.996Z,0
2016-12-04T02:31:59.034Z,0
2016-12-04T02:32:59.046Z,0
2016-12-04T02:33:58.990Z,0
2016-12-04T02:34:59.047Z,0
2016-12-04T02:35:58.979Z,0
2016-12-04T02:36:59.243Z,0
2016-12-04T02:37:59.172Z,0
2016-12-04T02:38:59.036Z,0
2016-12-04T02:39:59.095Z,0
2016-12-04T02:40:58.997Z,0
2016-12-04T02:41:58.996Z,0
2016-12-04T02:42:59.051Z,0
2016-12-04T02:43:58.965Z,0
2016-12-04T02:44:59.128Z,0
2016-12-04T02:45:59.097Z,0
2016-12-04T02:51:17.166Z,0
2016-12-04T02:51:27.636Z,0
2016-12-04T02:52:27.452Z,0
2016-12-04T02:53:27.221Z,0
2016-12-04T02:54:27.225Z,0
2016-12-04T02:55:27.786Z,0
2016-12-04T02:56:27.262Z,0
2016-12-04T02:57:27.439Z,0
2016-12-04T02:58:27.295Z,0
2016-12-04T02:59:27.227Z,0
2016-12-04T03:00:27.336Z,0
2016-12-04T03:01:27.242Z,0
2016-12-04T03:02:27.272Z,0
2016-12-04T03:03:27.239Z,0
2016-12-04T03:04:27.738Z,0
2016-12-04T03:05:27.471Z,0
2016-12-04T03:06:27.331Z,0
2016-12-04T03:07:28.763Z,0
2016-12-04T03:08:27.275Z,0
2016-12-04T03:09:27.261Z,0
2016-12-04T03:10:27.264Z,0
2016-12-04T03:11:27.249Z,0
2016-12-04T03:12:27.269Z,0
2016-12-04T03:13:27.411Z,0
2016-12-04T03:14:27.356Z,0
2016-12-04T03:15:27.254Z,0
2016-12-04T03:16:27.259Z,0
2016-12-04T03:17:27.273Z,0
2016-12-04T03:18:27.253Z,0
2016-12-04T03:19:27.379Z,0
2016-12-04T03:20:27.447Z,0
2016-12-04T03:21:27.252Z,0
2016-12-04T03:22:27.212Z,0
2016-12-04T03:23:27.364Z,0
2016-12-04T03:24:27.257Z,0
2016-12-04T03:25:27.303Z,0
2016-12-04T03:26:27.247Z,0
2016-12-04T03:27:27.312Z,0
2016-12-04T03:28:27.528Z,0
2016-12-04T03:29:27.269Z,0
2016-12-04T03:30:27.252Z,0
2016-12-04T03:31:27.286Z,0
2016-12-04T03:32:27.186Z,0
2016-12-04T03:33:27.266Z,0
2016-12-04T03:34:27.283Z,0
2016-12-04T03:35:27.585Z,0
2016-12-04T03:36:27.261Z,0
2016-12-04T03:37:27.376Z,0
2016-12-04T03:38:27.218Z,0
2016-12-04T03:39:27.254Z,0
2016-12-04T03:40:27.245Z,0
2016-12-04T03:41:27.235Z,0
2016-12-04T03:42:27.315Z,0
2016-12-04T03:43:27.255Z,0
2016-12-04T03:44:27.697Z,0
2016-12-04T03:45:27.265Z,0
2016-12-04T03:46:27.397Z,0
2016-12-04T03:47:27.572Z,0
2016-12-04T03:48:27.224Z,0
2016-12-04T03:49:27.321Z,0
2016-12-04T03:50:27.782Z,0
2016-12-04T03:51:27.258Z,0
2016-12-04T03:52:27.453Z,0
2016-12-04T03:53:27.332Z,0
2016-12-04T03:54:27.401Z,0
2016-12-04T03:55:28.203Z,0
2016-12-04T03:56:27.322Z,0
2016-12-04T03:57:27.250Z,0
2016-12-04T03:58:27.279Z,0
2016-12-04T03:59:27.287Z,0
2016-12-04T04:00:27.280Z,0
2016-12-04T04:01:27.298Z,0
2016-12-04T04:02:27.290Z,0
2016-12-04T04:03:28.046Z,0
2016-12-04T04:04:27.299Z,0
2016-12-04T04:05:27.383Z,0
2016-12-04T04:06:28.377Z,0
2016-12-04T04:07:27.368Z,0
2016-12-04T04:08:27.445Z,0
2016-12-04T04:09:27.339Z,0
2016-12-04T04:10:28.202Z,0
2016-12-04T04:11:27.396Z,0
2016-12-04T04:12:27.291Z,0
2016-12-04T04:13:27.311Z,0
2016-12-04T04:14:27.466Z,0
2016-12-04T04:15:27.871Z,0
2016-12-04T04:16:27.495Z,0
2016-12-04T04:17:27.337Z,0
2016-12-04T04:18:27.464Z,0
2016-12-04T04:19:27.292Z,0
2016-12-04T04:20:28.169Z,0
2016-12-04T04:21:27.360Z,0
2016-12-04T04:22:27.396Z,0
2016-12-04T04:23:28.475Z,0
2016-12-04T04:24:27.261Z,0
2016-12-04T04:25:27.313Z,0
2016-12-04T04:26:27.304Z,0
2016-12-04T04:27:28.457Z,0
2016-12-04T04:28:27.251Z,0
2016-12-04T04:29:27.521Z,0
2016-12-04T04:30:27.404Z,0
2016-12-04T04:31:27.442Z,0
2016-12-04T04:32:27.333Z,0
2016-12-04T04:33:27.482Z,0
2016-12-04T04:34:27.329Z,0
2016-12-04T04:35:28.618Z,0
2016-12-04T04:36:27.292Z,0
2016-12-04T04:37:27.399Z,0
2016-12-04T04:38:27.374Z,0
2016-12-04T04:39:27.393Z,0
2016-12-04T04:40:27.371Z,0
2016-12-04T04:41:27.339Z,0
2016-12-04T04:42:27.409Z,0
2016-12-04T04:43:27.309Z,0
2016-12-04T04:44:27.576Z,0
2016-12-04T04:45:27.369Z,0
2016-12-04T04:46:27.307Z,0
2016-12-04T04:47:27.285Z,0
2016-12-04T04:48:27.321Z,0
2016-12-04T04:49:27.255Z,0
2016-12-04T04:50:27.447Z,0
2016-12-04T04:51:27.625Z,0
2016-12-04T04:52:27.238Z,0
2016-12-04T04:53:27.304Z,0
2016-12-04T04:54:27.327Z,0
2016-12-04T04:55:27.289Z,0
2016-12-04T04:56:27.323Z,0
2016-12-04T04:57:27.319Z,0
2016-12-04T04:58:27.380Z,0
2016-12-04T04:59:27.270Z,0
2016-12-04T05:00:27.367Z,0
2016-12-04T05:01:27.360Z,0
2016-12-04T05:02:27.842Z,0
2016-12-04T05:03:27.262Z,0
2016-12-04T05:04:27.334Z,0
2016-12-04T05:05:27.286Z,0
2016-12-04T05:06:27.293Z,0
2016-12-04T05:07:27.278Z,0
2016-12-04T05:08:27.334Z,0
2016-12-04T05:09:27.311Z,0
2016-12-04T05:10:27.725Z,0
2016-12-04T05:11:27.412Z,0
2016-12-04T05:12:27.466Z,0
2016-12-04T05:13:27.323Z,0
2016-12-04T05:14:27.341Z,0
2016-12-04T05:15:27.270Z,0
2016-12-04T05:16:28.248Z,0
2016-12-04T05:17:27.411Z,0
2016-12-04T05:18:27.305Z,0
2016-12-04T05:19:27.412Z,0
2016-12-04T05:20:27.347Z,0
2016-12-04T05:21:27.510Z,0
2016-12-04T05:22:28.006Z,0
2016-12-04T05:23:27.338Z,0
2016-12-04T05:24:27.307Z,0
2016-12-04T05:25:27.321Z,0
2016-12-04T05:26:27.379Z,0
2016-12-04T05:27:27.301Z,0
2016-12-04T05:28:27.355Z,0
2016-12-04T05:29:27.303Z,0
2016-12-04T05:30:27.392Z,0
2016-12-04T05:31:28.352Z,0
2016-12-04T05:32:27.346Z,0
2016-12-04T05:33:27.275Z,0
2016-12-04T05:34:29.039Z,0
2016-12-04T05:35:27.382Z,0
2016-12-04T05:36:27.360Z,0
2016-12-04T05:37:27.313Z,0
2016-12-04T05:38:27.289Z,0
2016-12-04T05:39:27.408Z,0
2016-12-04T05:40:27.420Z,0
2016-12-04T05:41:27.478Z,0
2016-12-04T05:42:27.347Z,0
2016-12-04T05:43:27.353Z,0
2016-12-04T05:44:27.300Z,0
2016-12-04T05:45:27.334Z,0
2016-12-04T05:46:27.332Z,0
2016-12-04T05:47:27.343Z,0
2016-12-04T05:48:27.338Z,0
2016-12-04T05:49:27.300Z,0
2016-12-04T05:50:27.310Z,0
2016-12-04T05:51:27.366Z,0
2016-12-04T05:52:27.411Z,0
2016-12-04T05:53:27.293Z,0
2016-12-04T05:54:27.317Z,0
2016-12-04T05:55:27.412Z,0
2016-12-04T05:56:27.546Z,0
2016-12-04T05:57:27.395Z,0
2016-12-04T05:58:27.354Z,0
2016-12-04T05:59:27.292Z,0
2016-12-04T06:00:27.382Z,0
2016-12-04T06:01:27.481Z,0
2016-12-04T06:02:27.279Z,0
2016-12-04T06:03:27.319Z,0
2016-12-04T06:04:28.089Z,0
2016-12-04T06:05:27.274Z,0
2016-12-04T06:06:27.421Z,0
2016-12-04T06:07:27.278Z,0
2016-12-04T06:08:27.334Z,0
2016-12-04T06:09:27.314Z,0
2016-12-04T06:10:27.314Z,0
2016-12-04T06:11:27.317Z,0
2016-12-04T06:12:27.410Z,0
2016-12-04T06:13:28.035Z,0
2016-12-04T06:14:27.979Z,0
2016-12-04T06:15:27.449Z,0
2016-12-04T06:16:27.390Z,0
2016-12-04T06:17:27.300Z,0
2016-12-04T06:18:28.049Z,0
2016-12-04T06:19:27.391Z,0
2016-12-04T06:20:27.317Z,0
2016-12-04T06:21:29.530Z,0
2016-12-04T06:22:27.437Z,0
2016-12-04T06:23:27.464Z,0
2016-12-04T06:24:27.378Z,0
2016-12-04T06:25:27.434Z,0
2016-12-04T06:26:27.382Z,0
2016-12-04T06:27:27.382Z,0
2016-12-04T06:28:27.396Z,0
2016-12-04T06:29:27.449Z,0
2016-12-04T06:30:27.670Z,0
2016-12-04T06:31:27.394Z,0
2016-12-04T06:32:27.691Z,0
2016-12-04T06:33:27.377Z,0
2016-12-04T06:34:27.454Z,0
2016-12-04T06:35:28.579Z,0
2016-12-04T06:36:27.371Z,0
2016-12-04T06:37:27.405Z,0
2016-12-04T06:38:27.382Z,0
2016-12-04T06:39:27.415Z,0
2016-12-04T06:40:27.347Z,0
2016-12-04T06:41:27.392Z,0
2016-12-04T06:42:27.402Z,0
2016-12-04T06:43:27.485Z,0
2016-12-04T06:44:27.547Z,0
2016-12-04T06:45:27.555Z,0
2016-12-04T06:46:27.403Z,0
2016-12-04T06:47:27.418Z,0
2016-12-04T06:48:27.706Z,0
2016-12-04T06:49:27.374Z,0
2016-12-04T06:50:27.353Z,0
2016-12-04T06:51:27.406Z,0
2016-12-04T06:52:27.388Z,0
2016-12-04T06:53:28.162Z,0
2016-12-04T06:54:27.400Z,0
2016-12-04T06:55:27.980Z,0
2016-12-04T06:56:27.396Z,0
2016-12-04T06:57:27.417Z,0
2016-12-04T06:58:27.353Z,0
2016-12-04T06:59:27.361Z,0
2016-12-04T07:00:27.391Z,0
2016-12-04T07:01:27.359Z,0
2016-12-04T07:02:27.419Z,0
2016-12-04T07:03:27.387Z,0
2016-12-04T07:04:27.380Z,0
2016-12-04T07:05:27.447Z,0
2016-12-04T07:06:27.450Z,0
2016-12-04T07:07:27.378Z,0
2016-12-04T07:08:27.294Z,0
2016-12-04T07:09:27.309Z,0
2016-12-04T07:10:27.632Z,0
2016-12-04T07:11:28.436Z,0
2016-12-04T07:12:27.415Z,0
2016-12-04T07:13:27.409Z,0
2016-12-04T07:14:27.400Z,0
2016-12-04T07:15:27.278Z,0
2016-12-04T07:16:27.340Z,0
2016-12-04T07:17:27.333Z,0
2016-12-04T07:18:27.562Z,0
2016-12-04T07:19:27.331Z,5
2016-12-04T07:20:27.285Z,5
2016-12-04T07:21:27.520Z,5
2016-12-04T07:22:27.446Z,5
2016-12-04T07:23:27.379Z,5
2016-12-04T07:24:27.989Z,5
2016-12-04T07:25:27.411Z,5
2016-12-04T07:26:27.307Z,5
2016-12-04T07:27:27.297Z,5
2016-12-04T07:28:27.334Z,5
2016-12-04T07:29:27.573Z,10
2016-12-04T07:30:27.308Z,10
2016-12-04T07:31:27.366Z,10
2016-12-04T07:32:27.358Z,10
2016-12-04T07:33:27.323Z,10
2016-12-04T07:34:27.412Z,10
2016-12-04T07:35:27.430Z,10
2016-12-04T07:36:27.503Z,15
2016-12-04T07:37:27.498Z,15
2016-12-04T07:38:27.397Z,15
2016-12-04T07:39:27.505Z,15
2016-12-04T07:40:27.356Z,15
2016-12-04T07:41:28.050Z,15
2016-12-04T07:42:27.438Z,15
2016-12-04T07:43:27.682Z,15
2016-12-04T07:44:27.454Z,20
2016-12-04T07:45:28.101Z,20
2016-12-04T07:46:27.507Z,20
2016-12-04T07:47:27.378Z,20
2016-12-04T07:48:27.314Z,20
2016-12-04T07:49:27.443Z,20
2016-12-04T07:50:27.436Z,20
2016-12-04T07:51:27.547Z,20
2016-12-04T07:52:27.515Z,25
2016-12-04T07:53:27.384Z,25
2016-12-04T07:54:27.662Z,25
2016-12-04T07:55:27.377Z,25
2016-12-04T07:56:27.369Z,25
2016-12-04T07:57:27.431Z,25
2016-12-04T07:58:27.398Z,25
2016-12-04T07:59:27.363Z,30
2016-12-04T08:00:27.376Z,30
2016-12-04T08:01:27.449Z,30
2016-12-04T08:02:27.512Z,30
2016-12-04T08:03:27.459Z,30
2016-12-04T08:04:27.526Z,30
2016-12-04T08:05:27.395Z,30
2016-12-04T08:06:27.473Z,35
2016-12-04T08:07:27.469Z,35
2016-12-04T08:08:27.505Z,35
2016-12-04T08:09:27.474Z,35
2016-12-04T08:10:27.392Z,35
2016-12-04T08:11:27.404Z,35
2016-12-04T08:12:27.437Z,35
2016-12-04T08:13:27.383Z,35
2016-12-04T08:14:27.436Z,35
2016-12-04T08:15:27.375Z,40
2016-12-04T08:16:27.422Z,40
2016-12-04T08:17:27.439Z,40
2016-12-04T08:18:27.417Z,40
2016-12-04T08:19:27.434Z,40
2016-12-04T08:20:27.392Z,40
2016-12-04T08:21:27.431Z,40
2016-12-04T08:22:27.447Z,40
2016-12-04T08:23:27.422Z,40
2016-12-04T08:24:27.383Z,40
2016-12-04T08:25:27.404Z,45
2016-12-04T08:26:27.396Z,45
2016-12-04T08:27:27.459Z,45
2016-12-04T08:28:27.382Z,45
2016-12-04T08:29:27.404Z,45
2016-12-04T08:30:27.380Z,45
2016-12-04T08:31:27.395Z,45
2016-12-04T08:32:27.403Z,45
2016-12-04T08:33:27.418Z,45
2016-12-04T08:34:27.496Z,45
2016-12-04T08:35:27.420Z,45
2016-12-04T08:36:27.415Z,45
2016-12-04T08:37:27.453Z,50
2016-12-04T08:38:27.467Z,50
2016-12-04T08:39:27.459Z,50
2016-12-04T08:40:27.455Z,50
2016-12-04T08:41:27.416Z,50
2016-12-04T08:42:27.415Z,50
2016-12-04T08:43:27.432Z,50
2016-12-04T08:44:27.381Z,50
2016-12-04T08:45:27.332Z,50
2016-12-04T08:46:27.364Z,50
2016-12-04T08:47:27.393Z,50
2016-12-04T08:48:27.382Z,50
2016-12-04T08:49:27.383Z,50
2016-12-04T08:50:27.360Z,55
2016-12-04T08:51:27.346Z,55
2016-12-04T08:52:27.387Z,55
2016-12-04T08:53:27.382Z,55
2016-12-04T08:54:27.343Z,55
2016-12-04T08:55:27.424Z,55
2016-12-04T08:56:27.355Z,55
2016-12-04T08:57:27.471Z,55
2016-12-04T08:58:27.427Z,55
2016-12-04T08:59:28.207Z,55
2016-12-04T09:00:27.475Z,55
2016-12-04T09:01:27.481Z,55
2016-12-04T09:02:27.421Z,55
2016-12-04T09:03:27.441Z,55
2016-12-04T09:04:27.456Z,55
2016-12-04T09:05:27.445Z,55
2016-12-04T09:06:27.582Z,55
2016-12-04T09:07:27.495Z,55
2016-12-04T09:08:27.484Z,55
2016-12-04T09:09:27.503Z,60
2016-12-04T09:10:27.485Z,60
2016-12-04T09:11:27.593Z,60
2016-12-04T09:12:27.641Z,60
2016-12-04T09:13:27.433Z,60
2016-12-04T09:14:27.499Z,60
2016-12-04T09:15:27.546Z,60
2016-12-04T09:16:27.563Z,60
2016-12-04T09:17:27.475Z,60
2016-12-04T09:18:27.537Z,60
2016-12-04T09:19:27.561Z,60
2016-12-04T09:20:27.446Z,60
2016-12-04T09:21:27.461Z,60
2016-12-04T09:22:27.547Z,60
2016-12-04T09:23:27.435Z,60
2016-12-04T09:24:27.480Z,60
2016-12-04T09:25:27.443Z,60
2016-12-04T09:26:27.495Z,60
2016-12-04T09:27:27.558Z,60
2016-12-04T09:28:27.392Z,60
2016-12-04T09:29:27.685Z,60
2016-12-04T09:30:27.328Z,60
2016-12-04T09:31:27.381Z,60
2016-12-04T09:32:27.432Z,60
2016-12-04T09:33:27.430Z,60
2016-12-04T09:34:38.634Z,60
2016-12-04T09:35:27.821Z,60
2016-12-04T09:36:38.802Z,60
2016-12-04T09:37:39.276Z,65
2016-12-04T09:38:37.308Z,60
2016-12-04T09:39:40.006Z,65
2016-12-04T09:40:30.314Z,65
2016-12-04T09:41:40.357Z,65
2016-12-04T09:42:39.521Z,65
2016-12-04T09:43:38.580Z,65
2016-12-04T09:44:38.960Z,65
2016-12-04T09:45:38.905Z,65
2016-12-04T09:46:38.740Z,65
2016-12-04T09:47:42.828Z,65
2016-12-04T09:48:39.375Z,65
2016-12-04T09:49:39.732Z,65
2016-12-04T09:50:40.111Z,65
2016-12-04T09:51:40.702Z,65
2016-12-04T09:52:40.931Z,65
2016-12-04T09:53:39.908Z,65
2016-12-04T09:54:40.430Z,65
2016-12-04T09:55:39.348Z,65
2016-12-04T09:56:39.696Z,65
2016-12-04T09:57:32.060Z,65
2016-12-04T09:58:39.244Z,65
2016-12-04T09:59:38.176Z,65
2016-12-04T10:00:38.505Z,65
2016-12-04T10:01:39.352Z,65
2016-12-04T10:02:27.510Z,65
2016-12-04T10:03:28.189Z,65
2016-12-04T10:04:27.458Z,65
2016-12-04T10:05:27.497Z,70
2016-12-04T10:06:27.472Z,70
2016-12-04T10:07:27.684Z,70
2016-12-04T10:08:27.898Z,70
2016-12-04T10:09:28.429Z,70
2016-12-04T10:10:27.427Z,70
2016-12-04T10:11:27.455Z,70
2016-12-04T10:12:27.603Z,70
2016-12-04T10:13:27.428Z,70
2016-12-04T10:14:27.712Z,70
2016-12-04T10:15:27.721Z,70
2016-12-04T10:16:27.593Z,70
2016-12-04T10:17:27.475Z,70
2016-12-04T10:18:27.530Z,70
2016-12-04T10:19:27.649Z,70
2016-12-04T10:20:27.461Z,70
2016-12-04T10:21:27.476Z,70
2016-12-04T10:22:27.662Z,70
2016-12-04T10:23:27.448Z,70
2016-12-04T10:24:27.504Z,70
2016-12-04T10:25:27.439Z,70
2016-12-04T10:26:27.478Z,70
2016-12-04T10:27:28.003Z,70
2016-12-04T10:28:27.560Z,70
2016-12-04T10:29:27.776Z,70
2016-12-04T10:30:28.366Z,70
2016-12-04T10:31:28.093Z,70
2016-12-04T10:32:27.475Z,70
2016-12-04T10:33:28.136Z,70
2016-12-04T10:34:27.454Z,70
2016-12-04T10:35:27.406Z,70
2016-12-04T10:36:27.425Z,70
2016-12-04T10:37:27.460Z,70
2016-12-04T10:38:27.506Z,70
2016-12-04T10:39:27.428Z,70
2016-12-04T10:40:27.992Z,70
2016-12-04T10:41:27.531Z,70
2016-12-04T10:42:27.539Z,70
2016-12-04T10:43:27.499Z,70
2016-12-04T10:44:27.955Z,70
2016-12-04T10:45:27.443Z,70
2016-12-04T10:46:27.523Z,70
2016-12-04T10:47:27.593Z,70
2016-12-04T10:48:28.303Z,70
2016-12-04T10:49:27.557Z,70
2016-12-04T10:50:27.478Z,70
2016-12-04T10:51:27.464Z,70
2016-12-04T10:52:27.451Z,70
2016-12-04T10:53:27.467Z,70
2016-12-04T10:54:27.483Z,75
2016-12-04T10:55:27.527Z,70
2016-12-04T10:56:27.444Z,75
2016-12-04T10:57:27.759Z,75
2016-12-04T10:58:27.455Z,75
2016-12-04T10:59:27.829Z,75
2016-12-04T11:00:27.750Z,75
2016-12-04T11:01:27.507Z,75
2016-12-04T11:02:27.805Z,75
2016-12-04T11:03:27.479Z,75
2016-12-04T11:04:27.637Z,75
2016-12-04T11:05:27.676Z,75
2016-12-04T11:06:27.528Z,75
2016-12-04T11:07:27.516Z,75
2016-12-04T11:08:27.644Z,75
2016-12-04T11:09:27.474Z,75
2016-12-04T11:10:27.658Z,75
2016-12-04T11:11:27.525Z,75
2016-12-04T11:12:27.506Z,75
2016-12-04T11:13:27.453Z,75
2016-12-04T11:14:27.460Z,75
2016-12-04T11:15:27.973Z,75
2016-12-04T11:16:27.680Z,75
2016-12-04T11:17:27.439Z,75
2016-12-04T11:18:27.810Z,75
2016-12-04T11:19:27.780Z,75
2016-12-04T11:20:27.567Z,75
2016-12-04T11:21:27.553Z,75
2016-12-04T11:22:27.469Z,75
2016-12-04T11:23:27.645Z,75
2016-12-04T11:24:27.522Z,75
2016-12-04T11:25:27.679Z,75
2016-12-04T11:26:27.525Z,75
2016-12-04T11:27:28.072Z,75
2016-12-04T11:28:27.497Z,75
2016-12-04T11:29:27.556Z,75
2016-12-04T11:30:29.010Z,75
2016-12-04T11:31:27.640Z,75
2016-12-04T11:32:27.594Z,75
2016-12-04T11:33:27.506Z,75
2016-12-04T11:34:27.474Z,75
2016-12-04T11:35:28.331Z,75
2016-12-04T11:36:27.553Z,75
2016-12-04T11:37:27.821Z,75
2016-12-04T11:38:27.577Z,75
2016-12-04T11:39:28.165Z,75
2016-12-04T11:40:27.623Z,75
2016-12-04T11:41:28.660Z,75
2016-12-04T11:42:27.580Z,75
2016-12-04T11:43:27.577Z,75
2016-12-04T11:44:27.501Z,75
2016-12-04T11:45:27.576Z,75
2016-12-04T11:46:28.282Z,75
2016-12-04T11:47:27.545Z,75
2016-12-04T11:48:27.503Z,75
2016-12-04T11:49:27.860Z,75
2016-12-04T11:50:27.814Z,75
2016-12-04T11:51:27.654Z,75
2016-12-04T11:52:27.703Z,75
2016-12-04T11:53:27.931Z,75
2016-12-04T11:54:28.460Z,75
2016-12-04T11:55:27.636Z,75
2016-12-04T11:56:27.884Z,75
2016-12-04T11:57:27.607Z,75
2016-12-04T11:58:27.939Z,75
2016-12-04T11:59:28.814Z,75
2016-12-04T12:00:27.519Z,75
2016-12-04T12:01:27.799Z,75
2016-12-04T12:02:27.940Z,75
2016-12-04T12:03:27.663Z,75
2016-12-04T12:04:27.509Z,75
2016-12-04T12:05:27.591Z,75
2016-12-04T12:06:27.752Z,75
2016-12-04T12:07:27.795Z,75
2016-12-04T12:08:27.471Z,75
2016-12-04T12:09:27.591Z,75
2016-12-04T12:10:30.211Z,75
2016-12-04T12:11:28.149Z,75
2016-12-04T12:12:28.358Z,75
2016-12-04T12:13:27.569Z,75
2016-12-04T12:14:27.517Z,75
2016-12-04T12:15:27.529Z,75
2016-12-04T12:16:27.503Z,75
2016-12-04T12:17:27.625Z,75
2016-12-04T12:18:27.582Z,75
2016-12-04T12:19:27.977Z,75
2016-12-04T12:20:28.465Z,75
2016-12-04T12:21:27.580Z,75
2016-12-04T12:22:27.690Z,75
2016-12-04T12:23:27.602Z,75
2016-12-04T12:24:27.634Z,75
2016-12-04T12:25:27.513Z,75
2016-12-04T12:26:27.576Z,75
2016-12-04T12:27:27.578Z,75
2016-12-04T12:28:27.738Z,75
2016-12-04T12:29:29.103Z,75
2016-12-04T12:30:27.805Z,75
2016-12-04T12:31:27.775Z,75
2016-12-04T12:32:27.833Z,75
2016-12-04T12:33:27.493Z,75
2016-12-04T12:34:27.602Z,75
2016-12-04T12:35:27.871Z,75
2016-12-04T12:36:28.534Z,75
2016-12-04T12:37:28.982Z,75
2016-12-04T12:38:27.982Z,75
2016-12-04T12:39:27.483Z,75
2016-12-04T12:40:27.987Z,75
2016-12-04T12:41:27.568Z,75
2016-12-04T12:42:28.071Z,75
2016-12-04T12:43:27.625Z,75
2016-12-04T12:44:27.614Z,75
2016-12-04T12:45:27.761Z,75
2016-12-04T12:46:27.660Z,75
2016-12-04T12:47:28.447Z,75
2016-12-04T12:48:28.067Z,80
2016-12-04T12:49:28.177Z,80
2016-12-04T12:50:28.364Z,80
2016-12-04T12:51:28.103Z,80
2016-12-04T12:52:27.556Z,80
2016-12-04T12:53:27.896Z,80
2016-12-04T12:54:27.852Z,80
2016-12-04T12:55:28.772Z,80
2016-12-04T12:56:27.550Z,80
2016-12-04T12:57:27.657Z,80
2016-12-04T12:58:27.840Z,80
2016-12-04T12:59:27.595Z,80
2016-12-04T13:00:27.718Z,80
2016-12-04T13:01:28.444Z,80
2016-12-04T13:02:28.107Z,80
2016-12-04T13:03:27.868Z,80
2016-12-04T13:04:27.782Z,80
2016-12-04T13:05:28.606Z,80
2016-12-04T13:06:27.572Z,80
2016-12-04T13:07:28.399Z,80
2016-12-04T13:08:27.601Z,80
2016-12-04T13:09:27.737Z,80
2016-12-04T13:10:27.594Z,80
2016-12-04T13:11:27.512Z,80
2016-12-04T13:12:27.550Z,80
2016-12-04T13:13:27.526Z,80
2016-12-04T13:14:28.302Z,85
2016-12-04T13:15:27.564Z,80
2016-12-04T13:16:27.975Z,80
2016-12-04T13:17:27.873Z,80
2016-12-04T13:18:27.674Z,80
2016-12-04T13:19:27.523Z,80
2016-12-04T13:20:27.554Z,80
2016-12-04T13:21:27.542Z,80
2016-12-04T13:22:27.661Z,80
2016-12-04T13:23:27.577Z,80
2016-12-04T13:24:27.526Z,80
2016-12-04T13:25:27.678Z,80
2016-12-04T13:26:27.825Z,80
2016-12-04T13:27:27.603Z,80
2016-12-04T13:28:27.561Z,80
2016-12-04T13:29:27.590Z,80
2016-12-04T13:30:27.516Z,80
2016-12-04T13:31:27.572Z,80
2016-12-04T13:32:27.665Z,80
2016-12-04T13:33:27.583Z,80
2016-12-04T13:34:27.636Z,80
2016-12-04T13:35:27.554Z,80
2016-12-04T13:36:27.558Z,80
2016-12-04T13:37:27.608Z,75
2016-12-04T13:38:27.620Z,75
2016-12-04T13:39:27.551Z,75
2016-12-04T13:40:27.586Z,75
2016-12-04T13:41:27.644Z,75
2016-12-04T13:42:27.701Z,75
2016-12-04T13:43:27.678Z,75
2016-12-04T13:44:27.571Z,75
2016-12-04T13:45:27.606Z,75
2016-12-04T13:46:27.658Z,75
2016-12-04T13:47:27.603Z,75
2016-12-04T13:48:28.416Z,75
2016-12-04T13:49:27.622Z,70
2016-12-04T13:50:27.591Z,70
2016-12-04T13:51:27.537Z,70
2016-12-04T13:52:28.249Z,70
2016-12-04T13:53:27.743Z,70
2016-12-04T13:54:27.580Z,70
2016-12-04T13:55:27.594Z,70
2016-12-04T13:56:27.597Z,70
2016-12-04T13:57:27.677Z,70
2016-12-04T13:58:27.721Z,70
2016-12-04T13:59:28.463Z,70
2016-12-04T14:00:27.761Z,65
2016-12-04T14:01:27.673Z,65
2016-12-04T14:02:28.332Z,65
2016-12-04T14:03:27.737Z,65
2016-12-04T14:04:27.555Z,65
2016-12-04T14:05:27.665Z,65
2016-12-04T14:06:27.880Z,65
2016-12-04T14:07:27.686Z,65
2016-12-04T14:08:27.607Z,65
2016-12-04T14:09:28.165Z,60
2016-12-04T14:10:27.691Z,60
2016-12-04T14:11:28.375Z,60
2016-12-04T14:12:27.738Z,60
2016-12-04T14:13:27.716Z,60
2016-12-04T14:14:27.893Z,60
2016-12-04T14:15:27.778Z,60
2016-12-04T14:16:27.635Z,60
2016-12-04T14:17:27.684Z,55
2016-12-04T14:18:27.612Z,55
2016-12-04T14:19:27.714Z,55
2016-12-04T14:20:27.622Z,55
2016-12-04T14:21:27.656Z,55
2016-12-04T14:22:27.625Z,55
2016-12-04T14:23:27.613Z,55
2016-12-04T14:24:27.743Z,55
2016-12-04T14:25:27.655Z,55
2016-12-04T14:26:27.647Z,50
2016-12-04T14:27:27.735Z,50
2016-12-04T14:28:27.645Z,50
2016-12-04T14:29:28.818Z,50
2016-12-04T14:30:27.701Z,50
2016-12-04T14:31:30.831Z,50
2016-12-04T14:32:27.627Z,45
2016-12-04T14:33:27.670Z,45
2016-12-04T14:34:27.635Z,45
2016-12-04T14:35:27.637Z,45